Kouju Lily — 3FGB2 — position and weather

sailwx.info

Track history (hours):
 
Tides and Currents Weather Stations Pressure Air Temp Water Temp Dewpoint Dewpoint Depression Visibility Wind Speed Wind Dir Waves Ship Positions

Kouju Lily

Last reported at 2018-Jan-10 03:54 UTC. Time now 2018-Feb-17 23:24 UTC.
Position S 24°37' W 046°49'.
Warning: this ship's position is 38 days out of date.

Length 197 m; draft 9.9 m.

Type: Cargo ship. MMSI: 373221000.

Date/timePositionNaut miles runAvg speedWind from/ knotsBaromVisibWave heightAir tempDewpointWater temp
2018-Jan-10 03:54S 24°37' W 046°49'513.3
2018-Jan-10 03:30S 24°36' W 046°43'713.3
2018-Jan-10 03:00S 24°34' W 046°36'713.2
2018-Jan-10 02:30S 24°32' W 046°29'713.2
2018-Jan-10 02:00S 24°30' W 046°23'713.2
2018-Jan-10 01:30S 24°28' W 046°16'713.3
2018-Jan-10 00:59S 24°26' W 046°08'  
2018-Jan-03 07:29S 24°13' W 045°59'613.1
2018-Jan-03 07:00S 24°13' W 046°06'613.0
2018-Jan-03 06:31S 24°12' W 046°13'612.7
2018-Jan-03 06:00S 24°11' W 046°20'611.5
2018-Jan-03 05:30S 24°06' W 046°22'611.6
2018-Jan-03 05:01S 24°00' W 046°20'3 5.9
2018-Jan-03 04:30S 23°58' W 046°18'  
Track history (hours):
 
Tides and Currents Weather Stations Pressure Air Temp Water Temp Dewpoint Dewpoint Depression Visibility Wind Speed Wind Dir Waves Ship Positions

Kouju Lily

Last reported at 2018-Jan-10 03:54 UTC. Time now 2018-Feb-17 23:24 UTC.
Position S 24°37' W 046°49'.
Warning: this ship's position is 38 days out of date.

Length 197 m; draft 9.9 m.

Type: Cargo ship. MMSI: 373221000.

Date/timePositionNaut miles runAvg speedWind from/ knotsBaromVisibWave heightAir tempDewpointWater temp
2018-Jan-10 03:54S 24°37' W 046°49'513.3
2018-Jan-10 03:30S 24°36' W 046°43'713.3
2018-Jan-10 03:00S 24°34' W 046°36'713.2
2018-Jan-10 02:30S 24°32' W 046°29'713.2
2018-Jan-10 02:00S 24°30' W 046°23'713.2
2018-Jan-10 01:30S 24°28' W 046°16'713.3
2018-Jan-10 00:59S 24°26' W 046°08'  
2018-Jan-03 07:29S 24°13' W 045°59'613.1
2018-Jan-03 07:00S 24°13' W 046°06'613.0
2018-Jan-03 06:31S 24°12' W 046°13'612.7
2018-Jan-03 06:00S 24°11' W 046°20'611.5
2018-Jan-03 05:30S 24°06' W 046°22'611.6
2018-Jan-03 05:01S 24°00' W 046°20'3 5.9
2018-Jan-03 04:30S 23°58' W 046°18'  

Dump ship's entire track history